Time,TemperatureF,DewpointF,PressureIn,WindDirection,WindDirectionDegrees,WindSpeedMPH,WindSpeedGustMPH,Humidity,HourlyPrecipIn,Conditions,Clouds,dailyrainin,SoftwareType,DateUTC
2013-03-02 00:02:00,21.0,19.0,30.14,NE,42,8.0,0.0,90,0.03,,,-99.99,,2013-03-02 05:02:00,
2013-03-02 00:12:00,21.0,19.0,30.14,NE,42,8.0,0.0,90,0.03,,,-99.99,,2013-03-02 05:12:00,
2013-03-02 00:22:00,21.0,18.0,30.14,North,1,8.0,0.0,89,0.03,,,-99.99,,2013-03-02 05:22:00,
2013-03-02 00:32:00,21.0,18.0,30.14,NNE,14,6.0,0.0,89,0.03,,,-99.99,,2013-03-02 05:32:00,
2013-03-02 00:42:00,21.0,18.0,30.14,NNE,14,6.0,0.0,89,0.03,,,-99.99,,2013-03-02 05:42:00,
2013-03-02 00:52:00,20.0,18.0,30.14,North,356,6.0,0.0,90,0.03,,,-99.99,,2013-03-02 05:52:00,
2013-03-02 01:02:00,20.0,18.0,30.13,North,7,7.0,0.0,91,0.03,,,-99.99,,2013-03-02 06:02:00,
2013-03-02 01:11:00,20.0,18.0,30.13,North,7,7.0,0.0,91,0.03,,,-99.99,,2013-03-02 06:11:00,
2013-03-02 01:22:00,19.0,17.0,30.13,NNE,18,5.0,0.0,91,0.03,,,-99.99,,2013-03-02 06:22:00,
2013-03-02 01:32:00,19.0,17.0,30.13,NNW,343,6.0,0.0,92,0.03,,,-99.99,,2013-03-02 06:32:00,
2013-03-02 01:42:00,19.0,17.0,30.13,NNW,343,6.0,0.0,92,0.03,,,-99.99,,2013-03-02 06:42:00,
2013-03-02 01:52:00,19.0,17.0,30.13,North,356,6.0,0.0,92,0.03,,,-99.99,,2013-03-02 06:52:00,
2013-03-02 02:01:00,19.0,17.0,30.13,North,4,7.0,0.0,92,0.03,,,-99.99,,2013-03-02 07:01:00,
2013-03-02 02:11:00,19.0,17.0,30.13,North,4,7.0,0.0,92,0.03,,,-99.99,,2013-03-02 07:11:00,
2013-03-02 02:21:00,19.0,17.0,30.13,North,6,6.0,0.0,92,0.03,,,-99.99,,2013-03-02 07:21:00,
2013-03-02 02:32:00,19.0,17.0,30.13,North,3,7.0,0.0,93,0.03,,,-99.99,,2013-03-02 07:32:00,
2013-03-02 02:42:00,19.0,17.0,30.13,North,3,7.0,0.0,93,0.03,,,-99.99,,2013-03-02 07:42:00,
2013-03-02 02:52:00,19.0,17.0,30.13,North,0,7.0,0.0,93,0.03,,,-99.99,,2013-03-02 07:52:00,
2013-03-02 03:01:00,18.0,16.0,30.12,North,0,8.0,0.0,92,0.03,,,-99.99,,2013-03-02 08:01:00,
2013-03-02 03:11:00,18.0,16.0,30.12,North,0,8.0,0.0,92,0.03,,,-99.99,,2013-03-02 08:11:00,
2013-03-02 03:22:00,18.0,16.0,30.12,NNW,345,7.0,0.0,93,0.03,,,-99.99,,2013-03-02 08:22:00,
2013-03-02 03:32:00,18.0,17.0,30.12,North,359,6.0,0.0,94,0.03,,,-99.99,,2013-03-02 08:32:00,
2013-03-02 03:42:00,18.0,17.0,30.12,North,359,6.0,0.0,94,0.03,,,-99.99,,2013-03-02 08:42:00,
2013-03-02 03:52:00,18.0,17.0,30.12,North,11,8.0,0.0,94,0.03,,,-99.99,,2013-03-02 08:52:00,
2013-03-02 04:02:00,18.0,17.0,30.12,North,354,8.0,0.0,94,0.03,,,-99.99,,2013-03-02 09:02:00,
2013-03-02 04:11:00,18.0,17.0,30.12,North,354,8.0,0.0,94,0.03,,,-99.99,,2013-03-02 09:11:00,
2013-03-02 04:22:00,18.0,17.0,30.12,NNW,347,7.0,0.0,94,0.03,,,-99.99,,2013-03-02 09:22:00,
2013-03-02 04:32:00,18.0,17.0,30.12,North,354,7.0,0.0,94,0.03,,,-99.99,,2013-03-02 09:32:00,
2013-03-02 04:42:00,18.0,17.0,30.12,North,354,7.0,0.0,94,0.03,,,-99.99,,2013-03-02 09:42:00,
2013-03-02 04:52:00,17.0,16.0,30.12,NNW,347,7.0,0.0,94,0.03,,,-99.99,,2013-03-02 09:52:00,
2013-03-02 05:01:00,17.0,16.0,30.12,North,353,6.0,0.0,94,0.03,,,-99.99,,2013-03-02 10:01:00,
2013-03-02 05:16:00,17.0,16.0,30.12,North,353,6.0,0.0,94,0.03,,,-99.99,,2013-03-02 10:16:00,
2013-03-02 05:22:00,17.0,16.0,30.11,North,352,6.0,0.0,95,0.03,,,-99.99,,2013-03-02 10:22:00,
2013-03-02 05:32:00,17.0,16.0,30.12,NNW,346,6.0,0.0,95,0.03,,,-99.99,,2013-03-02 10:32:00,
2013-03-02 05:43:00,17.0,16.0,30.12,NNW,346,6.0,0.0,95,0.03,,,-99.99,,2013-03-02 10:43:00,
2013-03-02 05:52:00,16.0,15.0,30.12,North,349,5.0,0.0,96,0.03,,,-99.99,,2013-03-02 10:52:00,
2013-03-02 06:01:00,16.0,15.0,30.11,North,0,6.0,0.0,96,0.03,,,-99.99,,2013-03-02 11:01:00,
2013-03-02 06:11:00,16.0,15.0,30.11,North,0,6.0,0.0,96,0.03,,,-99.99,,2013-03-02 11:11:00,
2013-03-02 06:22:00,16.0,15.0,30.11,North,0,6.0,0.0,96,0.03,,,-99.99,,2013-03-02 11:22:00,
2013-03-02 06:32:00,16.0,15.0,30.12,North,357,6.0,0.0,97,0.03,,,-99.99,,2013-03-02 11:32:00,
2013-03-02 06:42:00,16.0,15.0,30.12,North,357,6.0,0.0,97,0.03,,,-99.99,,2013-03-02 11:42:00,
2013-03-02 06:52:00,15.0,14.0,30.12,North,6,6.0,0.0,97,0.03,,,-99.99,,2013-03-02 11:52:00,
2013-03-02 07:02:00,15.0,15.0,30.12,North,7,7.0,0.0,98,0.03,,,-99.99,,2013-03-02 12:02:00,
2013-03-02 07:11:00,15.0,15.0,30.12,North,7,7.0,0.0,98,0.03,,,-99.99,,2013-03-02 12:11:00,
2013-03-02 07:22:00,15.0,15.0,30.12,North,359,7.0,0.0,99,0.03,,,-99.99,,2013-03-02 12:22:00,
2013-03-02 07:33:00,14.0,14.0,30.13,North,0,5.0,0.0,99,0.03,,,-99.99,,2013-03-02 12:33:00,
2013-03-02 07:43:00,14.0,14.0,30.13,North,0,5.0,0.0,99,0.03,,,-99.99,,2013-03-02 12:43:00,
2013-03-02 07:53:00,14.0,14.0,30.13,NNE,27,4.0,0.0,99,0.03,,,-99.99,,2013-03-02 12:53:00,
2013-03-02 08:02:00,14.0,-99.9,30.13,NNE,32,19.0,0.0,0,0.03,,,-99.99,,2013-03-02 13:02:00,
2013-03-02 08:11:00,14.0,-99.9,30.13,NNE,32,19.0,0.0,0,0.03,,,-99.99,,2013-03-02 13:11:00,
2013-03-02 08:22:00,14.0,14.0,30.13,NNW,347,9.0,0.0,100,0.03,,,-99.99,,2013-03-02 13:22:00,
2013-03-02 08:32:00,15.0,15.0,30.14,North,8,10.0,0.0,100,0.03,,,-99.99,,2013-03-02 13:32:00,
2013-03-02 08:42:00,15.0,15.0,30.14,North,8,10.0,0.0,100,0.03,,,-99.99,,2013-03-02 13:42:00,
2013-03-02 08:52:00,15.0,15.0,30.14,North,357,8.0,0.0,99,0.03,,,-99.99,,2013-03-02 13:52:00,
2013-03-02 09:01:00,15.0,15.0,30.14,North,8,8.0,0.0,99,0.03,,,-99.99,,2013-03-02 14:01:00,
2013-03-02 09:11:00,15.0,15.0,30.14,North,8,8.0,0.0,99,0.03,,,-99.99,,2013-03-02 14:11:00,
2013-03-02 09:21:00,16.0,16.0,30.14,NNE,23,11.0,0.0,99,0.03,,,-99.99,,2013-03-02 14:21:00,
2013-03-02 09:32:00,17.0,17.0,30.14,North,0,12.0,0.0,98,0.03,,,-99.99,,2013-03-02 14:32:00,
2013-03-02 09:42:00,17.0,17.0,30.14,North,0,12.0,0.0,98,0.03,,,-99.99,,2013-03-02 14:42:00,
2013-03-02 09:52:00,17.0,17.0,30.14,North,8,12.0,0.0,98,0.03,,,-99.99,,2013-03-02 14:52:00,
2013-03-02 10:02:00,17.0,17.0,30.14,North,8,12.0,0.0,98,0.03,,,-99.99,,2013-03-02 15:02:00,
2013-03-02 10:11:00,17.0,17.0,30.14,North,8,12.0,0.0,98,0.03,,,-99.99,,2013-03-02 15:11:00,
2013-03-02 10:22:00,18.0,17.0,30.14,NNE,15,12.0,0.0,97,0.03,,,-99.99,,2013-03-02 15:22:00,
2013-03-02 10:32:00,18.0,17.0,30.14,North,3,14.0,0.0,96,0.03,,,-99.99,,2013-03-02 15:32:00,
2013-03-02 10:42:00,18.0,17.0,30.14,North,3,14.0,0.0,96,0.03,,,-99.99,,2013-03-02 15:42:00,
2013-03-02 10:52:00,18.0,17.0,30.14,North,3,14.0,0.0,96,0.03,,,-99.99,,2013-03-02 15:52:00,
2013-03-02 11:02:00,19.0,18.0,30.13,NNW,339,12.0,0.0,96,0.03,,,-99.99,,2013-03-02 16:02:00,
2013-03-02 11:11:00,19.0,18.0,30.13,NNW,339,12.0,0.0,96,0.03,,,-99.99,,2013-03-02 16:11:00,
2013-03-02 11:12:00,19.0,18.0,30.13,North,3,12.0,0.0,94,0.03,,,-99.99,,2013-03-02 16:12:00,
2013-03-02 11:22:00,19.0,18.0,30.13,North,7,12.0,0.0,95,0.03,,,-99.99,,2013-03-02 16:22:00,
2013-03-02 11:32:00,19.0,18.0,30.13,North,3,12.0,0.0,94,0.03,,,-99.99,,2013-03-02 16:32:00,
2013-03-02 11:42:00,19.0,18.0,30.13,North,3,12.0,0.0,94,0.03,,,-99.99,,2013-03-02 16:42:00,
2013-03-02 11:52:00,19.0,18.0,30.13,North,3,12.0,0.0,94,0.03,,,-99.99,,2013-03-02 16:52:00,
2013-03-02 12:01:00,19.0,18.0,30.13,North,3,12.0,0.0,94,0.03,,,-99.99,,2013-03-02 17:01:00,
2013-03-02 12:22:00,21.0,19.0,30.12,NNE,30,13.0,0.0,92,0.03,,,-99.99,,2013-03-02 17:22:00,
2013-03-02 12:32:00,21.0,19.0,30.12,NNE,30,13.0,0.0,92,0.03,,,-99.99,,2013-03-02 17:32:00,
2013-03-02 12:42:00,21.0,19.0,30.12,NNE,30,13.0,0.0,92,0.03,,,-99.99,,2013-03-02 17:42:00,
2013-03-02 12:52:00,22.0,20.0,30.12,North,354,11.0,0.0,90,0.03,,,-99.99,,2013-03-02 17:52:00,
2013-03-02 13:02:00,23.0,20.0,30.11,North,6,7.0,0.0,89,0.03,,,-99.99,,2013-03-02 18:02:00,
2013-03-02 13:12:00,23.0,20.0,30.11,North,6,7.0,0.0,89,0.03,,,-99.99,,2013-03-02 18:12:00,
2013-03-02 13:22:00,23.0,19.0,30.11,North,354,11.0,0.0,86,0.03,,,-99.99,,2013-03-02 18:22:00,
2013-03-02 13:32:00,23.0,19.0,30.10,NNE,18,11.0,0.0,86,0.03,,,-99.99,,2013-03-02 18:32:00,
2013-03-02 13:42:00,23.0,19.0,30.10,NNE,18,11.0,0.0,86,0.03,,,-99.99,,2013-03-02 18:42:00,
2013-03-02 13:52:00,24.0,20.0,30.10,NNW,329,7.0,0.0,85,0.03,,,-99.99,,2013-03-02 18:52:00,
2013-03-02 14:01:00,25.0,21.0,30.09,NW,311,7.0,0.0,84,0.03,,,-99.99,,2013-03-02 19:01:00,
2013-03-02 14:12:00,25.0,21.0,30.09,NW,311,7.0,0.0,84,0.03,,,-99.99,,2013-03-02 19:12:00,
2013-03-02 14:22:00,25.0,20.0,30.09,NW,319,2.0,0.0,82,0.03,,,-99.99,,2013-03-02 19:22:00,
2013-03-02 14:32:00,25.0,19.0,30.08,North,349,7.0,0.0,79,0.03,,,-99.99,,2013-03-02 19:32:00,
2013-03-02 14:42:00,25.0,19.0,30.08,North,349,7.0,0.0,79,0.03,,,-99.99,,2013-03-02 19:42:00,
2013-03-02 14:52:00,25.0,19.0,30.08,North,349,7.0,0.0,79,0.03,,,-99.99,,2013-03-02 19:52:00,
2013-03-02 15:01:00,28.0,22.0,30.08,NW,318,4.0,0.0,77,0.03,,,-99.99,,2013-03-02 20:01:00,
2013-03-02 15:11:00,28.0,22.0,30.08,NW,318,4.0,0.0,77,0.03,,,-99.99,,2013-03-02 20:11:00,
2013-03-02 15:22:00,29.0,21.0,30.07,NW,323,5.0,0.0,72,0.03,,,-99.99,,2013-03-02 20:22:00,
2013-03-02 15:32:00,28.0,21.0,30.07,NW,326,4.0,0.0,74,0.03,,,-99.99,,2013-03-02 20:32:00,
2013-03-02 15:42:00,28.0,21.0,30.07,NW,326,4.0,0.0,74,0.03,,,-99.99,,2013-03-02 20:42:00,
2013-03-02 15:52:00,29.0,21.0,30.07,WNW,293,3.0,0.0,73,0.03,,,-99.99,,2013-03-02 20:52:00,
2013-03-02 16:02:00,29.0,20.0,30.06,NW,325,9.0,0.0,70,0.03,,,-99.99,,2013-03-02 21:02:00,
2013-03-02 16:12:00,29.0,20.0,30.06,NW,325,9.0,0.0,70,0.03,,,-99.99,,2013-03-02 21:12:00,
2013-03-02 16:22:00,29.0,21.0,30.06,NW,315,9.0,0.0,71,0.03,,,-99.99,,2013-03-02 21:22:00,
2013-03-02 16:32:00,29.0,21.0,30.06,NW,309,9.0,0.0,71,0.03,,,-99.99,,2013-03-02 21:32:00,
2013-03-02 16:42:00,29.0,21.0,30.06,NW,309,9.0,0.0,71,0.03,,,-99.99,,2013-03-02 21:42:00,
2013-03-02 16:52:00,29.0,21.0,30.06,NW,325,10.0,0.0,72,0.03,,,-99.99,,2013-03-02 21:52:00,
2013-03-02 17:02:00,29.0,21.0,30.06,NNW,333,9.0,0.0,71,0.03,,,-99.99,,2013-03-02 22:02:00,
2013-03-02 17:12:00,29.0,21.0,30.06,NNW,333,9.0,0.0,71,0.03,,,-99.99,,2013-03-02 22:12:00,
2013-03-02 17:22:00,30.0,21.0,30.06,NW,308,6.0,0.0,70,0.03,,,-99.99,,2013-03-02 22:22:00,
2013-03-02 17:32:00,30.0,21.0,30.06,NNW,328,7.0,0.0,70,0.03,,,-99.99,,2013-03-02 22:32:00,
2013-03-02 17:42:00,30.0,21.0,30.06,NNW,328,7.0,0.0,70,0.03,,,-99.99,,2013-03-02 22:42:00,
2013-03-02 17:52:00,30.0,21.0,30.06,NNW,328,7.0,0.0,70,0.03,,,-99.99,,2013-03-02 22:52:00,
2013-03-02 18:01:00,30.0,22.0,30.06,NNW,332,12.0,0.0,71,0.03,,,-99.99,,2013-03-02 23:01:00,
2013-03-02 18:11:00,30.0,21.0,30.06,NW,322,11.0,0.0,70,0.03,,,-99.99,,2013-03-02 23:11:00,
2013-03-02 18:21:00,30.0,21.0,30.06,NW,322,11.0,0.0,70,0.03,,,-99.99,,2013-03-02 23:21:00,
2013-03-02 18:32:00,30.0,21.0,30.07,North,0,10.0,0.0,70,0.03,,,-99.99,,2013-03-02 23:32:00,
2013-03-02 18:42:00,30.0,21.0,30.07,North,0,10.0,0.0,70,0.03,,,-99.99,,2013-03-02 23:42:00,
2013-03-02 18:52:00,29.0,21.0,30.07,East,93,5.0,0.0,72,0.03,,,-99.99,,2013-03-02 23:52:00,
2013-03-02 19:02:00,29.0,22.0,30.07,East,101,0.0,0.0,74,0.03,,,-99.99,,2013-03-03 00:02:00,
2013-03-02 19:11:00,29.0,22.0,30.07,East,101,0.0,0.0,74,0.03,,,-99.99,,2013-03-03 00:11:00,
2013-03-02 19:22:00,28.0,21.0,30.08,NE,49,0.0,0.0,75,0.03,,,-99.99,,2013-03-03 00:22:00,
2013-03-02 19:32:00,28.0,21.0,30.08,NE,46,2.0,0.0,74,0.03,,,-99.99,,2013-03-03 00:32:00,
2013-03-02 19:42:00,28.0,21.0,30.08,NE,46,2.0,0.0,74,0.03,,,-99.99,,2013-03-03 00:42:00,
2013-03-02 19:52:00,28.0,21.0,30.08,NE,46,2.0,0.0,74,0.03,,,-99.99,,2013-03-03 00:52:00,
2013-03-02 20:01:00,27.0,20.0,30.08,North,356,0.0,0.0,74,0.03,,,-99.99,,2013-03-03 01:01:00,
2013-03-02 20:11:00,27.0,20.0,30.08,North,356,0.0,0.0,74,0.03,,,-99.99,,2013-03-03 01:11:00,
2013-03-02 20:21:00,26.0,19.0,30.08,North,359,8.0,0.0,74,0.03,,,-99.99,,2013-03-03 01:21:00,
2013-03-02 20:32:00,25.0,19.0,30.08,North,1,8.0,0.0,76,0.03,,,-99.99,,2013-03-03 01:32:00,
2013-03-02 20:42:00,25.0,19.0,30.08,North,1,8.0,0.0,76,0.03,,,-99.99,,2013-03-03 01:42:00,
2013-03-02 20:52:00,25.0,19.0,30.08,North,3,11.0,0.0,78,0.03,,,-99.99,,2013-03-03 01:52:00,
2013-03-02 21:01:00,25.0,19.0,30.09,NNE,24,12.0,0.0,79,0.03,,,-99.99,,2013-03-03 02:01:00,
2013-03-02 21:11:00,25.0,19.0,30.09,NNE,24,12.0,0.0,79,0.03,,,-99.99,,2013-03-03 02:11:00,
2013-03-02 21:21:00,24.0,19.0,30.09,NNE,15,11.0,0.0,80,0.03,,,-99.99,,2013-03-03 02:21:00,
2013-03-02 21:32:00,24.0,19.0,30.10,NNW,345,11.0,0.0,82,0.03,,,-99.99,,2013-03-03 02:32:00,
2013-03-02 21:42:00,24.0,19.0,30.10,NNW,345,11.0,0.0,82,0.03,,,-99.99,,2013-03-03 02:42:00,
2013-03-02 21:52:00,23.0,19.0,30.10,North,8,10.0,0.0,83,0.03,,,-99.99,,2013-03-03 02:52:00,
2013-03-02 22:01:00,23.0,19.0,30.10,North,353,9.0,0.0,84,0.03,,,-99.99,,2013-03-03 03:01:00,
2013-03-02 22:11:00,23.0,19.0,30.10,North,353,9.0,0.0,84,0.03,,,-99.99,,2013-03-03 03:11:00,
2013-03-02 22:21:00,22.0,18.0,30.10,NNE,14,9.0,0.0,86,0.03,,,-99.99,,2013-03-03 03:21:00,
2013-03-02 22:32:00,22.0,19.0,30.10,NNE,17,7.0,0.0,87,0.03,,,-99.99,,2013-03-03 03:32:00,
2013-03-02 22:42:00,22.0,19.0,30.10,NNE,17,7.0,0.0,87,0.03,,,-99.99,,2013-03-03 03:42:00,
2013-03-02 22:52:00,21.0,18.0,30.09,North,352,8.0,0.0,88,0.03,,,-99.99,,2013-03-03 03:52:00,
2013-03-02 23:01:00,22.0,19.0,30.09,NNE,20,6.0,0.0,88,0.03,,,-99.99,,2013-03-03 04:01:00,
2013-03-02 23:11:00,22.0,19.0,30.09,NNE,20,6.0,0.0,88,0.03,,,-99.99,,2013-03-03 04:11:00,
2013-03-02 23:21:00,22.0,19.0,30.09,NNW,340,6.0,0.0,89,0.03,,,-99.99,,2013-03-03 04:21:00,
2013-03-02 23:32:00,22.0,19.0,30.09,NW,321,7.0,0.0,89,0.03,,,-99.99,,2013-03-03 04:32:00,
2013-03-02 23:42:00,22.0,19.0,30.09,NW,321,7.0,0.0,89,0.03,,,-99.99,,2013-03-03 04:42:00,
2013-03-02 23:52:00,22.0,19.0,30.09,NW,308,5.0,0.0,89,0.03,,,-99.99,,2013-03-03 04:52:00,